This is the latest recevied weather packets stored in our database for station/object N5SNT-2. If no packets are shown the sender has not sent any weather packets the latest 10 day(s).
| Time | Temp. | Humidity | Pressure | Rain* | Wind** | Luminosity | Snow |
|---|---|---|---|---|---|---|---|
| 1777582643 | 21.67° C | 83% | 1012 hPa | 0 mm | - | 200 W/m² | - |
| 1777582344 | 21.67° C | 83% | 1013 hPa | 0 mm | - | 188 W/m² | - |
| 1777582044 | 21.67° C | 83% | 1013 hPa | 0 mm | - | 226 W/m² | - |
| 1777581744 | 21.67° C | 83% | 1013 hPa | 0 mm | - | 283 W/m² | - |
| 1777581444 | 21.67° C | 83% | 1013 hPa | 0 mm | - | 277 W/m² | - |
| 1777581144 | 21.11° C | 83% | 1013 hPa | 0 mm | - | 293 W/m² | - |
| 1777580844 | 22.22° C | 82% | 1013 hPa | 0 mm | - | 260 W/m² | - |
| 1777580545 | 21.67° C | 83% | 1013 hPa | 0 mm | - | 313 W/m² | - |
| 1777580245 | 21.67° C | 82% | 1013 hPa | 0 mm | - | 264 W/m² | - |
| 1777579944 | 22.22° C | 82% | 1014 hPa | 0 mm | - | 185 W/m² | - |
| 1777579643 | 21.67° C | 82% | 1014 hPa | 0 mm | - | 393 W/m² | - |
| 1777579347 | 21.67° C | 82% | 1014 hPa | 0 mm | - | 319 W/m² | - |
| 1777579043 | 21.67° C | 82% | 1014 hPa | 0 mm | - | 266 W/m² | - |
| 1777578746 | 21.67° C | 82% | 1014 hPa | 0 mm | - | 247 W/m² | - |
| 1777578444 | 21.67° C | 82% | 1014 hPa | 0 mm | - | 197 W/m² | - |
| 1777578144 | 22.22° C | 81% | 1014 hPa | 0 mm | - | 213 W/m² | - |
| 1777577844 | 22.78° C | 78% | 1013 hPa | 0 mm | - | 238 W/m² | - |
| 1777577544 | 22.22° C | 80% | 1014 hPa | 0 mm | - | 401 W/m² | - |
| 1777577244 | 22.78° C | 81% | 1013 hPa | 0 mm | - | 309 W/m² | - |
| 1777576943 | 22.78° C | 79% | 1013 hPa | 0 mm | - | 381 W/m² | - |
| 1777576643 | 22.22° C | 80% | 1014 hPa | 0 mm | - | 381 W/m² | - |
| 1777576343 | 22.22° C | 80% | 1014 hPa | 0 mm | - | 454 W/m² | - |
| 1777576044 | 22.22° C | 80% | 1014 hPa | 0 mm | - | 477 W/m² | - |
| 1777575743 | 22.22° C | 80% | 1014 hPa | 0 mm | - | 458 W/m² | - |
| 1777575443 | 22.22° C | 80% | 1014 hPa | 0 mm | - | 343 W/m² | - |
* Rain latest hour (hover to see other rain measurements)
** Current wind speed in m/s (hover to see current wind gust speed)